Time;durP1;ratioP1;P1;durP2;ratioP2;P2;SDS_P1;SDS_P2;PMS_P1;PMS_P2;Temp;Humidity;BMP_temperature;BMP_pressure;BME280_temperature;BME280_humidity;BME280_pressure;Samples;Min_cycle;Max_cycle;Signal;HPM_P1;HPM_P2
2023/10/18 00:02:16;;;;;;;;;;;3.00;99.90;;;;;;5110248;28;20104;-72
2023/10/18 00:04:44;;;;;;;0.70;0.70;;;3.10;99.90;;;;;;5108518;28;19920;-73
2023/10/18 00:07:12;;;;;;;0.70;0.70;;;3.80;99.90;;;;;;5094828;27;20055;-73
2023/10/18 00:09:49;;;;;;;0.60;0.60;;;3.10;99.90;;;;;;5114316;27;20039;-73
2023/10/18 00:12:19;;;;;;;0.70;0.70;;;3.10;99.90;;;;;;5100205;28;20051;-73
2023/10/18 00:14:45;;;;;;;0.57;0.57;;;3.70;99.90;;;;;;5107889;28;20324;-73
2023/10/18 00:17:12;;;;;;;;;;;3.90;99.90;;;;;;5110730;28;20039;-73
2023/10/18 00:19:39;;;;;;;0.60;0.60;;;3.30;99.90;;;;;;5109634;28;19924;-73
2023/10/18 00:22:07;;;;;;;0.65;0.65;;;3.30;99.90;;;;;;5104087;28;20047;-73
2023/10/18 00:24:33;;;;;;;0.65;0.65;;;3.30;99.90;;;;;;5107366;27;20040;-73
2023/10/18 00:26:59;;;;;;;0.68;0.68;;;4.10;99.90;;;;;;5093675;28;20043;-73
2023/10/18 00:29:24;;;;;;;0.70;0.70;;;3.30;99.90;;;;;;5101838;28;20074;-73
2023/10/18 00:31:50;;;;;;;0.70;0.70;;;3.40;99.90;;;;;;5112826;27;20043;-73
2023/10/18 00:34:16;;;;;;;0.95;0.75;;;3.40;99.90;;;;;;5101794;28;20055;-73
2023/10/18 00:36:43;;;;;;;;;;;3.40;99.90;;;;;;5109727;28;20486;-73
2023/10/18 00:39:21;;;;;;;0.60;0.60;;;3.50;99.90;;;;;;5107847;28;20010;-73
2023/10/18 00:41:53;;;;;;;0.65;0.65;;;3.60;99.90;;;;;;5113803;27;20105;-73
2023/10/18 00:44:21;;;;;;;0.63;0.63;;;3.70;99.90;;;;;;5109488;27;20043;-73
2023/10/18 00:46:52;;;;;;;0.70;0.70;;;3.60;99.90;;;;;;5100996;28;20708;-73
2023/10/18 00:49:20;;;;;;;0.60;0.60;;;3.40;99.90;;;;;;5104918;28;20130;-73
2023/10/18 00:51:47;;;;;;;0.60;0.60;;;3.40;99.90;;;;;;5106867;28;20657;-73
2023/10/18 00:54:14;;;;;;;0.63;0.63;;;3.40;99.90;;;;;;5110383;28;20552;-73
2023/10/18 00:56:43;;;;;;;0.85;0.82;;;3.50;99.90;;;;;;5115535;27;20039;-73
2023/10/18 00:59:21;;;;;;;0.70;0.70;;;3.30;99.90;;;;;;5110043;28;20044;-73
2023/10/18 01:01:53;;;;;;;0.60;0.60;;;4.20;99.90;;;;;;5088893;28;20044;-73
2023/10/18 01:04:23;;;;;;;0.70;0.70;;;3.90;99.90;;;;;;5098721;28;20043;-73
2023/10/18 01:06:50;;;;;;;0.60;0.60;;;3.30;99.90;;;;;;5108465;28;20050;-73
2023/10/18 01:09:17;;;;;;;0.70;0.70;;;3.20;99.90;;;;;;5108895;28;20092;-73
2023/10/18 01:11:46;;;;;;;0.70;0.70;;;3.20;99.90;;;;;;5109324;28;20096;-73
2023/10/18 01:14:16;;;;;;;0.60;0.60;;;3.20;99.90;;;;;;5100811;28;20469;-73
2023/10/18 01:16:44;;;;;;;0.70;0.70;;;3.30;99.90;;;;;;5108215;27;20040;-73
2023/10/18 01:19:13;;;;;;;0.50;0.50;;;3.30;99.90;;;;;;5113676;27;20048;-73
2023/10/18 01:21:42;;;;;;;0.90;0.90;;;3.30;99.90;;;;;;5111165;28;20081;-73
2023/10/18 01:24:13;;;;;;;0.68;0.68;;;3.80;99.90;;;;;;5109543;27;20047;-73
2023/10/18 01:26:40;;;;;;;0.70;0.70;;;3.30;99.90;;;;;;5102859;28;20039;-73
2023/10/18 01:29:08;;;;;;;0.70;0.70;;;3.90;99.90;;;;;;5114702;27;20043;-73
2023/10/18 01:31:34;;;;;;;0.50;0.50;;;3.30;99.90;;;;;;5113026;28;20047;-73
2023/10/18 01:34:03;;;;;;;1.13;1.13;;;3.40;99.90;;;;;;5113978;27;20040;-73
2023/10/18 01:36:32;;;;;;;0.65;0.65;;;3.40;99.90;;;;;;5105157;28;20099;-73
2023/10/18 01:38:58;;;;;;;0.70;0.70;;;3.30;99.90;;;;;;5113655;28;20046;-73
2023/10/18 01:41:34;;;;;;;0.60;0.60;;;3.30;99.90;;;;;;5108589;28;20063;-73
2023/10/18 01:44:07;;;;;;;0.70;0.70;;;3.30;99.90;;;;;;5115226;27;20051;-73
2023/10/18 01:46:48;;;;;;;0.55;0.55;;;3.30;99.90;;;;;;5111252;28;20063;-73
2023/10/18 01:49:18;;;;;;;0.60;0.60;;;3.40;99.90;;;;;;5108659;28;20079;-73
2023/10/18 01:51:47;;;;;;;0.35;0.35;;;3.40;99.90;;;;;;5112817;28;20060;-73
2023/10/18 01:54:13;;;;;;;0.60;0.60;;;3.40;99.90;;;;;;5110156;27;20736;-73
2023/10/18 01:56:42;;;;;;;0.70;0.70;;;3.40;99.90;;;;;;5110857;28;20406;-73
2023/10/18 01:59:14;;;;;;;0.77;0.77;;;3.40;99.90;;;;;;5115747;27;20451;-72
2023/10/18 02:01:44;;;;;;;0.68;0.68;;;3.40;99.90;;;;;;5112515;28;20047;-73
2023/10/18 02:04:11;;;;;;;0.57;0.57;;;3.60;99.90;;;;;;5112695;27;20188;-73
2023/10/18 02:06:37;;;;;;;0.60;0.60;;;3.40;99.90;;;;;;5112971;27;20475;-73
2023/10/18 02:09:10;;;;;;;0.70;0.70;;;4.30;99.90;;;;;;5110847;28;20044;-73
2023/10/18 02:11:36;;;;;;;0.60;0.60;;;3.50;99.90;;;;;;5112963;28;20394;-73
2023/10/18 02:14:02;;;;;;;;;;;3.80;99.90;;;;;;5120085;27;20486;-73
2023/10/18 02:16:28;;;;;;;0.70;0.70;;;3.70;99.90;;;;;;5106482;28;19924;-73
2023/10/18 02:18:54;;;;;;;0.70;0.70;;;3.90;99.90;;;;;;5109189;27;20055;-73
2023/10/18 02:21:23;;;;;;;0.60;0.60;;;3.30;99.90;;;;;;5104113;28;20043;-73
2023/10/18 02:23:51;;;;;;;0.60;0.60;;;4.60;99.90;;;;;;5112126;28;20047;-73
2023/10/18 02:28:54;;;;;;;0.60;0.60;;;4.10;99.90;;;;;;5101553;28;20047;-73
2023/10/18 02:31:23;;;;;;;0.68;0.68;;;3.20;99.90;;;;;;5112660;28;20509;-73
2023/10/18 02:33:49;;;;;;;1.55;1.45;;;4.20;99.90;;;;;;5113327;27;20702;-73
2023/10/18 02:36:21;;;;;;;1.17;1.17;;;3.40;99.90;;;;;;5104573;28;20043;-73
2023/10/18 02:38:49;;;;;;;0.60;0.60;;;4.40;99.90;;;;;;5111204;28;20079;-73
2023/10/18 02:41:20;;;;;;;0.60;0.60;;;3.20;99.90;;;;;;5096826;28;20498;-73
2023/10/18 02:43:47;;;;;;;0.68;0.68;;;3.20;99.90;;;;;;5094920;28;20074;-73
2023/10/18 02:46:16;;;;;;;0.70;0.70;;;3.20;99.90;;;;;;5109209;28;20077;-73
2023/10/18 02:48:44;;;;;;;0.70;0.70;;;3.80;99.90;;;;;;5112079;27;20063;-72
2023/10/18 02:51:14;;;;;;;0.60;0.60;;;3.40;99.90;;;;;;5099834;28;20147;-73
2023/10/18 02:53:43;;;;;;;1.80;1.70;;;3.20;99.90;;;;;;5111561;28;20058;-73
2023/10/18 02:56:10;;;;;;;0.70;0.70;;;3.10;99.90;;;;;;5117712;27;20031;-73
2023/10/18 02:58:38;;;;;;;0.50;0.50;;;4.40;99.90;;;;;;5118266;27;20047;-73
2023/10/18 03:01:06;;;;;;;0.65;0.65;;;3.20;99.90;;;;;;5115953;27;20055;-73
2023/10/18 03:03:33;;;;;;;0.70;0.70;;;4.00;99.90;;;;;;5119856;27;20122;-73
2023/10/18 03:06:05;;;;;;;0.60;0.60;;;3.20;99.90;;;;;;5099935;27;20044;-73
2023/10/18 03:08:32;;;;;;;0.70;0.70;;;3.70;99.90;;;;;;5116183;27;20051;-73
2023/10/18 03:11:00;;;;;;;0.65;0.65;;;3.10;99.90;;;;;;5114399;27;20055;-72
2023/10/18 03:13:27;;;;;;;0.60;0.60;;;3.10;99.90;;;;;;5111429;27;20131;-73
2023/10/18 03:18:43;;;;;;;0.70;0.70;;;3.10;99.90;;;;;;5105676;27;19924;-73
2023/10/18 03:21:20;;;;;;;0.65;0.65;;;3.50;99.90;;;;;;5110564;28;20039;-73
2023/10/18 03:23:52;;;;;;;;;;;3.10;99.90;;;;;;5101591;27;20050;-73
2023/10/18 03:26:42;;;;;;;0.70;0.70;;;3.20;99.90;;;;;;5115780;27;19926;-73
2023/10/18 03:29:16;;;;;;;0.63;0.63;;;3.80;99.90;;;;;;5100674;27;20095;-72
2023/10/18 03:31:44;;;;;;;0.60;0.60;;;3.40;99.90;;;;;;5100647;27;20474;-73
2023/10/18 03:34:19;;;;;;;0.77;0.77;;;3.60;99.90;;;;;;5116786;27;20131;-73
2023/10/18 03:36:54;;;;;;;0.60;0.60;;;4.10;99.90;;;;;;5114900;27;20558;-73
2023/10/18 03:39:21;;;;;;;0.70;0.70;;;3.10;99.90;;;;;;5111596;27;20188;-72
2023/10/18 03:41:50;;;;;;;0.57;0.57;;;3.30;99.90;;;;;;5098942;27;20403;-74
2023/10/18 03:44:32;;;;;;;0.65;0.65;;;3.20;99.90;;;;;;5116764;27;20386;-73
2023/10/18 03:47:04;;;;;;;0.55;0.55;;;4.00;99.90;;;;;;5117001;27;20036;-73
2023/10/18 03:49:36;;;;;;;0.60;0.60;;;3.20;99.90;;;;;;5114697;27;20047;-73
2023/10/18 03:55:13;;;;;;;0.60;0.60;;;3.20;99.90;;;;;;5110510;28;20047;-73
2023/10/18 03:57:41;;;;;;;0.70;0.70;;;4.10;99.90;;;;;;5106446;28;20048;-73
2023/10/18 04:00:54;;;;;;;0.60;0.60;;;4.20;99.90;;;;;;5109253;28;20403;-73
2023/10/18 04:02:59;;;;;;;1.38;1.10;;;3.20;99.90;;;;;;5100933;28;20134;-73
2023/10/18 04:05:44;;;;;;;0.63;0.63;;;3.20;99.90;;;;;;5110460;28;20239;-73
2023/10/18 04:08:17;;;;;;;0.70;0.70;;;3.80;99.90;;;;;;5116135;27;20490;-73
2023/10/18 04:10:44;;;;;;;0.63;0.63;;;3.20;99.90;;;;;;5115168;27;20486;-73
2023/10/18 04:13:14;;;;;;;0.70;0.70;;;3.30;99.90;;;;;;5117180;27;20585;-73
2023/10/18 04:15:46;;;;;;;0.70;0.70;;;3.10;99.90;;;;;;5116486;27;20047;-73
2023/10/18 04:18:13;;;;;;;0.60;0.60;;;3.30;99.90;;;;;;5112424;27;20050;-73
2023/10/18 04:20:43;;;;;;;0.70;0.70;;;3.10;99.90;;;;;;5112028;27;20079;-73
2023/10/18 04:23:29;;;;;;;0.65;0.65;;;3.20;99.90;;;;;;5105025;28;20132;-73
2023/10/18 04:25:58;;;;;;;0.60;0.60;;;3.80;99.90;;;;;;5090662;28;20052;-73
2023/10/18 04:28:37;;;;;;;0.55;0.55;;;3.30;99.90;;;;;;5095373;28;20094;-73
2023/10/18 04:31:04;;;;;;;0.70;0.70;;;3.20;99.90;;;;;;5109562;27;20094;-73
2023/10/18 04:33:43;;;;;;;1.25;1.20;;;3.20;99.90;;;;;;5109987;27;20048;-73
2023/10/18 04:36:11;;;;;;;0.80;0.80;;;4.60;99.90;;;;;;5112178;27;20196;-73
2023/10/18 04:38:47;;;;;;;0.60;0.60;;;3.10;99.90;;;;;;5110593;27;20046;-73
2023/10/18 04:43:50;;;;;;;0.65;0.65;;;3.10;99.90;;;;;;5114241;27;20040;-73
2023/10/18 04:46:18;;;;;;;0.70;0.70;;;3.20;99.90;;;;;;5111605;27;20111;-73
2023/10/18 04:54:08;;;;;;;0.65;0.65;;;3.10;99.90;;;;;;5110505;28;20097;-73
2023/10/18 04:56:37;;;;;;;0.60;0.60;;;3.00;99.90;;;;;;5109444;28;20052;-74
2023/10/18 04:59:29;;;;;;;0.70;0.70;;;3.90;99.90;;;;;;5093862;28;20083;-73
2023/10/18 05:04:28;;;;;;;0.60;0.60;;;3.00;99.90;;;;;;5114634;27;20074;-73
2023/10/18 05:06:55;;;;;;;0.70;0.70;;;2.90;99.90;;;;;;5114502;28;20461;-73
2023/10/18 05:09:32;;;;;;;0.63;0.63;;;3.00;99.90;;;;;;5115550;28;20579;-73
2023/10/18 05:11:59;;;;;;;0.60;0.60;;;2.90;99.90;;;;;;5113787;28;20383;-73
2023/10/18 05:14:43;;;;;;;1.17;0.93;;;3.20;99.90;;;;;;5115982;28;20462;-73
2023/10/18 05:17:32;;;;;;;0.60;0.60;;;2.90;99.90;;;;;;5116855;28;20039;-73
2023/10/18 05:19:56;;;;;;;0.70;0.70;;;2.90;99.90;;;;;;5100196;28;20040;-73
2023/10/18 05:22:25;;;;;;;;;;;2.90;99.90;;;;;;5098632;28;20055;-73
2023/10/18 05:25:23;;;;;;;0.70;0.70;;;2.90;99.90;;;;;;5105631;28;20006;-73
2023/10/18 05:28:15;;;;;;;0.70;0.70;;;2.80;99.90;;;;;;5090893;28;20048;-73
2023/10/18 05:43:58;;;;;;;0.60;0.60;;;3.40;99.90;;;;;;5113699;28;20058;-74
2023/10/18 05:46:28;;;;;;;0.60;0.60;;;2.80;99.90;;;;;;5108564;28;20043;-73
2023/10/18 05:48:57;;;;;;;0.50;0.50;;;3.00;99.90;;;;;;5108523;28;20441;-74
2023/10/18 05:51:26;;;;;;;0.70;0.70;;;2.90;99.90;;;;;;5096054;28;20128;-74
2023/10/18 05:53:59;;;;;;;0.60;0.60;;;3.60;99.90;;;;;;5096144;28;20044;-73
2023/10/18 05:56:34;;;;;;;0.75;0.75;;;2.90;99.90;;;;;;5096675;28;20081;-73
2023/10/18 06:01:47;;;;;;;1.35;1.25;;;2.90;99.90;;;;;;5116754;27;20051;-73
2023/10/18 06:04:14;;;;;;;0.60;0.60;;;2.90;99.90;;;;;;5119372;27;20058;-73
2023/10/18 06:06:40;;;;;;;0.60;0.60;;;2.90;99.90;;;;;;5107450;27;20036;-73
2023/10/18 06:09:25;;;;;;;1.15;1.15;;;2.90;99.90;;;;;;5115745;27;20102;-74
2023/10/18 06:11:51;;;;;;;0.70;0.70;;;3.00;99.90;;;;;;5110560;27;20051;-74
2023/10/18 06:14:17;;;;;;;0.80;0.80;;;3.00;99.90;;;;;;5103001;27;20043;-74
2023/10/18 06:16:43;;;;;;;0.70;0.70;;;3.00;99.90;;;;;;5104074;27;20052;-73
2023/10/18 06:19:13;;;;;;;3.22;2.78;;;3.00;99.90;;;;;;5107799;28;20168;-74
2023/10/18 06:21:57;;;;;;;0.70;0.70;;;3.00;99.90;;;;;;5110196;28;20513;-73
2023/10/18 06:24:25;;;;;;;0.95;0.95;;;3.00;99.90;;;;;;5105214;28;20904;-73
2023/10/18 06:26:54;;;;;;;0.57;0.57;;;3.00;99.90;;;;;;5107910;27;20044;-73
2023/10/18 06:29:22;;;;;;;0.70;0.70;;;3.00;99.90;;;;;;5108745;28;20047;-73
2023/10/18 06:31:49;;;;;;;1.05;1.05;;;3.00;99.90;;;;;;5109660;28;20501;-73
2023/10/18 06:34:17;;;;;;;0.70;0.70;;;3.10;99.90;;;;;;5107801;28;20073;-73
2023/10/18 06:36:44;;;;;;;0.60;0.60;;;3.20;99.90;;;;;;5103295;27;20149;-73
2023/10/18 06:39:24;;;;;;;0.80;0.80;;;3.20;99.90;;;;;;5107131;28;20054;-73
2023/10/18 06:41:55;;;;;;;0.70;0.70;;;3.20;99.90;;;;;;5109086;28;20044;-73
2023/10/18 06:44:27;;;;;;;2.25;0.98;;;3.20;99.90;;;;;;5104339;28;20441;-73
2023/10/18 06:46:53;;;;;;;0.80;0.80;;;3.30;99.90;;;;;;5107006;27;20048;-73
2023/10/18 06:49:19;;;;;;;0.70;0.70;;;3.50;99.90;;;;;;5068774;28;20052;-73
2023/10/18 06:51:49;;;;;;;;;;;4.80;99.90;;;;;;5068451;28;20045;-73
2023/10/18 06:54:23;;;;;;;0.95;0.95;;;3.70;99.90;;;;;;5071965;28;19956;-73
2023/10/18 06:56:53;;;;;;;0.65;0.65;;;4.40;99.90;;;;;;5065122;28;20155;-73
2023/10/18 06:59:25;;;;;;;0.60;0.60;;;3.60;99.90;;;;;;5069742;28;20402;-74
2023/10/18 07:01:57;;;;;;;0.80;0.80;;;3.60;99.90;;;;;;5069656;28;20068;-73
2023/10/18 07:05:08;;;;;;;0.63;0.63;;;4.00;99.90;;;;;;5060565;28;20127;-72
2023/10/18 07:07:20;;;;;;;0.68;0.68;;;3.70;99.90;;;;;;5065485;28;20060;-73
2023/10/18 07:09:52;;;;;;;0.60;0.60;;;3.70;99.90;;;;;;5069907;28;20048;-73
2023/10/18 07:12:19;;;;;;;0.82;0.82;;;3.80;99.90;;;;;;5061373;28;20095;-74
2023/10/18 07:14:46;;;;;;;0.50;0.50;;;3.80;99.90;;;;;;5062765;28;20131;-74
2023/10/18 07:17:14;;;;;;;0.93;0.93;;;4.70;99.90;;;;;;5069166;28;20052;-74
2023/10/18 07:19:49;;;;;;;0.50;0.50;;;3.90;99.90;;;;;;5062422;28;20569;-74
2023/10/18 07:22:18;;;;;;;1.10;1.10;;;4.00;99.90;;;;;;5062950;28;20036;-74
2023/10/18 07:24:47;;;;;;;0.90;0.90;;;4.10;99.90;;;;;;5067678;28;20414;-74
2023/10/18 07:27:16;;;;;;;1.02;1.02;;;4.70;99.90;;;;;;5065842;28;20079;-74
2023/10/18 07:29:47;;;;;;;0.60;0.60;;;4.20;99.90;;;;;;5064536;28;20056;-74
2023/10/18 07:32:13;;;;;;;0.60;0.60;;;4.20;99.90;;;;;;5066407;28;20789;-74
2023/10/18 07:34:39;;;;;;;0.60;0.60;;;4.30;99.90;;;;;;5066290;28;20070;-74
2023/10/18 07:37:41;;;;;;;0.60;0.60;;;4.40;99.90;;;;;;5066390;28;20090;-73
2023/10/18 07:39:58;;;;;;;1.02;1.02;;;4.40;99.90;;;;;;5062960;28;20426;-74
2023/10/18 07:42:26;;;;;;;0.77;0.77;;;4.50;99.90;;;;;;5065336;28;20119;-73
2023/10/18 07:44:53;;;;;;;0.60;0.60;;;4.60;99.90;;;;;;5066000;28;20510;-73
2023/10/18 07:47:25;;;;;;;0.70;0.70;;;4.70;99.90;;;;;;5076306;27;20058;-72
2023/10/18 07:49:55;;;;;;;0.60;0.60;;;4.80;99.90;;;;;;5105656;27;20455;-73
2023/10/18 07:52:21;;;;;;;1.42;1.33;;;4.90;99.90;;;;;;5069422;28;20094;-74
2023/10/18 07:54:48;;;;;;;;;;;4.90;99.90;;;;;;5104197;27;20101;-73
2023/10/18 07:57:17;;;;;;;0.70;0.70;;;5.00;99.90;;;;;;5104892;27;19931;-73
2023/10/18 07:59:46;;;;;;;0.75;0.75;;;5.10;99.90;;;;;;5111533;27;20056;-73
2023/10/18 08:02:12;;;;;;;0.65;0.65;;;5.30;99.90;;;;;;5109964;28;20050;-74
2023/10/18 08:04:43;;;;;;;0.73;0.73;;;5.20;99.90;;;;;;5109413;28;20142;-73
2023/10/18 08:07:11;;;;;;;0.60;0.60;;;5.30;99.90;;;;;;5108549;28;20043;-74
2023/10/18 08:09:41;;;;;;;0.55;0.55;;;5.40;99.90;;;;;;5104610;28;20039;-74
2023/10/18 08:12:20;;;;;;;0.63;0.63;;;5.50;99.90;;;;;;5104149;27;20058;-74
2023/10/18 08:14:47;;;;;;;0.60;0.60;;;5.60;99.90;;;;;;5102977;27;20150;-74
2023/10/18 08:22:44;;;;;;;0.60;0.60;;;5.90;99.90;;;;;;5108118;27;20047;-74
2023/10/18 08:25:21;;;;;;;0.90;0.90;;;6.00;99.90;;;;;;5099712;27;20043;-74
2023/10/18 08:27:51;;;;;;;0.50;0.50;;;6.10;99.90;;;;;;5105837;28;20036;-74
2023/10/18 08:33:10;;;;;;;0.80;0.80;;;6.30;99.90;;;;;;5065733;27;20145;-73
2023/10/18 08:35:37;;;;;;;0.50;0.50;;;6.30;99.90;;;;;;5107232;28;20047;-73
2023/10/18 08:38:03;;;;;;;0.47;0.47;;;6.40;99.90;;;;;;5095029;28;20054;-73
2023/10/18 08:43:15;;;;;;;2.60;1.25;;;6.50;99.90;;;;;;5094067;28;19923;-73
2023/10/18 08:45:47;;;;;;;0.98;0.93;;;6.60;99.90;;;;;;5103137;28;20050;-73
2023/10/18 08:48:27;;;;;;;1.25;1.15;;;6.60;99.90;;;;;;5105785;28;20048;-72
2023/10/18 08:50:55;;;;;;;0.50;0.50;;;6.70;99.90;;;;;;5107676;28;20130;-73
2023/10/18 08:53:25;;;;;;;0.63;0.63;;;6.80;99.90;;;;;;5107457;28;20058;-74
2023/10/18 08:55:57;;;;;;;0.60;0.60;;;6.80;99.90;;;;;;5106758;28;20050;-73
2023/10/18 08:58:30;;;;;;;2.13;2.05;;;6.90;99.90;;;;;;5113261;27;20065;-73
2023/10/18 09:03:27;;;;;;;0.73;0.73;;;7.10;99.90;;;;;;5106089;28;20373;-73
2023/10/18 09:06:04;;;;;;;0.60;0.60;;;7.10;99.90;;;;;;5108759;28;20047;-72
2023/10/18 09:08:42;;;;;;;1.30;1.30;;;7.20;99.90;;;;;;5092837;28;20710;-72
2023/10/18 09:11:21;;;;;;;0.50;0.50;;;7.30;99.90;;;;;;5104354;28;20047;-73
2023/10/18 09:14:07;;;;;;;0.77;0.77;;;7.40;99.90;;;;;;5108241;28;20047;-73
2023/10/18 09:16:41;;;;;;;1.35;1.27;;;7.50;99.90;;;;;;5101685;28;20082;-73
2023/10/18 09:19:08;;;;;;;2.35;2.25;;;7.60;99.90;;;;;;5103181;28;20055;-73
2023/10/18 09:21:36;;;;;;;0.47;0.47;;;7.60;99.90;;;;;;5105860;28;20078;-73
2023/10/18 09:24:06;;;;;;;1.25;1.15;;;7.70;99.90;;;;;;5104346;28;20077;-72
2023/10/18 09:26:41;;;;;;;0.88;0.88;;;7.80;99.90;;;;;;5102700;28;20567;-73
2023/10/18 09:29:10;;;;;;;0.50;0.50;;;7.90;99.90;;;;;;5105802;28;20047;-73
2023/10/18 09:32:02;;;;;;;0.85;0.85;;;8.00;99.90;;;;;;5104534;28;20051;-73
2023/10/18 09:34:35;;;;;;;0.75;0.75;;;8.00;99.90;;;;;;5102609;28;20081;-73
2023/10/18 09:37:13;;;;;;;1.00;0.68;;;8.10;99.90;;;;;;5107102;27;20062;-73
2023/10/18 09:39:42;;;;;;;0.50;0.50;;;8.20;99.90;;;;;;5109059;27;20177;-73
2023/10/18 09:42:12;;;;;;;1.42;1.35;;;8.30;99.90;;;;;;5111937;28;20118;-73
2023/10/18 09:44:41;;;;;;;2.05;0.63;;;8.30;99.90;;;;;;5104583;28;20043;-73
2023/10/18 09:47:08;;;;;;;1.17;1.02;;;8.40;99.90;;;;;;5108982;27;20524;-73
2023/10/18 09:49:34;;;;;;;0.80;0.80;;;8.50;99.90;;;;;;5110708;28;20051;-72
2023/10/18 09:52:07;;;;;;;1.50;1.42;;;8.60;99.90;;;;;;5110689;27;20490;-73
2023/10/18 09:54:36;;;;;;;0.85;0.85;;;8.70;99.90;;;;;;5111069;28;20106;-73
2023/10/18 09:57:06;;;;;;;0.55;0.55;;;8.70;99.90;;;;;;5111560;28;20047;-74
2023/10/18 09:59:37;;;;;;;0.55;0.55;;;8.70;99.90;;;;;;5109768;27;20078;-72
2023/10/18 10:02:09;;;;;;;0.68;0.68;;;8.80;99.90;;;;;;5110577;28;20047;-74
2023/10/18 10:04:39;;;;;;;0.80;0.80;;;9.00;99.90;;;;;;5111677;28;20035;-72
2023/10/18 10:09:50;;;;;;;0.63;0.63;;;9.20;99.90;;;;;;5110155;27;20178;-74
2023/10/18 10:12:19;;;;;;;0.63;0.55;;;9.30;99.90;;;;;;5096260;28;20048;-73
2023/10/18 10:14:46;;;;;;;0.43;0.43;;;9.30;99.90;;;;;;5109382;28;20043;-73
2023/10/18 10:17:20;;;;;;;0.73;0.55;;;9.40;99.90;;;;;;5111459;28;20201;-74
2023/10/18 10:19:53;;;;;;;0.40;0.40;;;9.40;99.90;;;;;;5116345;27;20039;-73
2023/10/18 10:22:24;;;;;;;0.50;0.50;;;9.50;99.90;;;;;;5111583;27;20164;-73
2023/10/18 10:25:05;;;;;;;1.27;1.05;;;9.50;99.90;;;;;;5110901;28;20040;-73
2023/10/18 10:30:03;;;;;;;1.42;0.93;;;9.60;99.90;;;;;;5109393;28;20051;-73
2023/10/18 10:32:30;;;;;;;0.63;0.63;;;9.60;99.90;;;;;;5095834;28;20510;-73
2023/10/18 10:35:24;;;;;;;0.52;0.52;;;9.70;99.90;;;;;;5111382;28;20083;-73
2023/10/18 10:38:21;;;;;;;0.77;0.77;;;9.80;99.90;;;;;;5110259;28;20218;-73
2023/10/18 10:40:48;;;;;;;0.50;0.50;;;9.80;99.90;;;;;;5106583;28;20043;-73
2023/10/18 10:43:18;;;;;;;1.15;1.15;;;9.90;99.90;;;;;;5111741;27;20040;-74
2023/10/18 10:51:37;;;;;;;0.50;0.50;;;10.10;99.90;;;;;;5107373;27;20044;-73
2023/10/18 10:53:57;;;;;;;0.82;0.82;;;10.30;99.90;;;;;;5104940;28;20116;-73
2023/10/18 10:56:32;;;;;;;1.92;1.25;;;10.30;99.90;;;;;;5110614;28;20405;-73
2023/10/18 11:01:39;;;;;;;0.70;0.70;;;10.50;99.90;;;;;;5106723;28;20047;-74
2023/10/18 11:04:46;;;;;;;2.22;0.55;;;10.60;99.90;;;;;;5107369;27;20052;-73
2023/10/18 11:07:21;;;;;;;1.05;0.70;;;10.50;99.90;;;;;;5111839;27;20048;-73
2023/10/18 11:09:48;;;;;;;0.90;0.88;;;10.60;99.90;;;;;;5104286;28;20059;-73
2023/10/18 11:12:13;;;;;;;0.70;0.70;;;10.70;99.90;;;;;;5109874;27;20039;-72
2023/10/18 11:14:43;;;;;;;1.02;1.02;;;10.80;99.90;;;;;;5106895;28;20171;-73
2023/10/18 11:19:51;;;;;;;0.55;0.50;;;10.90;99.90;;;;;;5106767;28;20495;-74
2023/10/18 11:22:21;;;;;;;0.50;0.50;;;10.90;99.90;;;;;;5104616;28;20490;-73
2023/10/18 11:24:50;;;;;;;0.50;0.50;;;10.90;99.90;;;;;;5105355;27;20044;-73
2023/10/18 11:27:33;;;;;;;1.75;0.88;;;11.00;99.90;;;;;;5107495;28;20089;-73
2023/10/18 11:32:48;;;;;;;0.73;0.55;;;11.00;99.90;;;;;;5112170;27;20055;-73
2023/10/18 11:35:25;;;;;;;2.08;1.88;;;11.00;99.90;;;;;;5111498;27;20417;-73
2023/10/18 11:37:52;;;;;;;0.75;0.75;;;11.00;99.90;;;;;;5109298;28;20126;-74
2023/10/18 11:40:29;;;;;;;0.95;0.95;;;11.10;99.90;;;;;;5109745;28;20071;-72
2023/10/18 11:43:07;;;;;;;1.08;1.02;;;11.10;99.90;;;;;;5106643;28;20083;-72
2023/10/18 11:45:36;;;;;;;1.40;1.30;;;11.20;99.90;;;;;;5105384;27;20048;-74
2023/10/18 11:48:02;;;;;;;0.57;0.57;;;11.20;99.90;;;;;;5107562;27;20134;-74
2023/10/18 11:50:58;;;;;;;1.00;0.40;;;11.20;99.90;;;;;;5109209;27;20048;-72
2023/10/18 11:53:26;;;;;;;3.30;1.23;;;11.30;99.90;;;;;;5096326;28;20131;-73
2023/10/18 11:55:55;;;;;;;1.40;1.30;;;11.30;99.90;;;;;;5108415;27;20169;-73
2023/10/18 11:58:26;;;;;;;2.67;1.05;;;11.40;99.90;;;;;;5107702;28;20118;-74
2023/10/18 12:01:13;;;;;;;0.52;0.52;;;11.40;99.90;;;;;;5106494;28;20073;-74
2023/10/18 12:03:38;;;;;;;0.40;0.40;;;11.40;99.90;;;;;;5108648;28;20880;-72
2023/10/18 12:06:04;;;;;;;0.43;0.35;;;11.40;99.90;;;;;;5106311;28;20035;-73
2023/10/18 12:11:42;;;;;;;0.55;0.55;;;11.40;99.90;;;;;;5064241;28;20404;-73
2023/10/18 12:14:08;;;;;;;0.40;0.40;;;11.50;99.90;;;;;;5109655;28;20043;-74
2023/10/18 12:16:34;;;;;;;3.45;1.30;;;11.50;99.90;;;;;;5093045;28;20043;-73
2023/10/18 12:19:00;;;;;;;;;;;11.50;99.90;;;;;;5108318;28;20743;-73
2023/10/18 12:21:32;;;;;;;0.40;0.40;;;11.60;99.90;;;;;;5113131;27;19923;-73
2023/10/18 12:23:58;;;;;;;0.77;0.73;;;11.60;99.90;;;;;;5107977;27;20044;-74
2023/10/18 12:26:24;;;;;;;0.38;0.38;;;11.70;99.90;;;;;;5108516;28;20493;-74
2023/10/18 12:28:52;;;;;;;0.30;0.30;;;11.70;99.90;;;;;;5096840;28;20056;-74
2023/10/18 12:31:27;;;;;;;0.63;0.63;;;11.80;99.90;;;;;;5094062;28;20050;-74
2023/10/18 12:33:59;;;;;;;0.90;0.65;;;11.80;99.90;;;;;;5108497;28;20086;-73
2023/10/18 12:36:40;;;;;;;0.60;0.60;;;11.80;99.90;;;;;;5093165;28;20052;-75
2023/10/18 12:39:09;;;;;;;1.13;1.13;;;11.90;99.90;;;;;;5102246;28;20047;-73
2023/10/18 12:41:40;;;;;;;0.65;0.65;;;12.00;99.90;;;;;;5096911;28;20397;-74
2023/10/18 12:44:10;;;;;;;0.70;0.70;;;12.00;99.90;;;;;;5108576;28;20039;-73
2023/10/18 12:46:37;;;;;;;1.42;1.30;;;12.00;99.90;;;;;;5107951;28;20239;-74
2023/10/18 12:49:05;;;;;;;1.27;1.10;;;12.10;99.90;;;;;;5105638;28;20051;-73
2023/10/18 12:51:31;;;;;;;0.73;0.73;;;12.20;99.90;;;;;;5106637;28;20485;-73
2023/10/18 12:54:02;;;;;;;0.75;0.75;;;12.20;99.90;;;;;;5108280;28;20043;-73
2023/10/18 12:58:57;;;;;;;0.57;0.57;;;12.30;99.90;;;;;;5108907;28;20474;-74
2023/10/18 13:01:31;;;;;;;1.85;1.27;;;12.20;99.90;;;;;;5101473;28;20066;-74
2023/10/18 13:03:57;;;;;;;0.75;0.75;;;12.20;99.90;;;;;;5088449;28;20039;-74
2023/10/18 13:06:30;;;;;;;;;;;12.20;99.90;;;;;;5109137;28;20489;-74
2023/10/18 13:09:15;;;;;;;0.70;0.70;;;12.20;99.90;;;;;;5108749;28;19923;-73
2023/10/18 13:12:08;;;;;;;0.40;0.40;;;12.10;99.90;;;;;;5104140;28;20539;-73
2023/10/18 13:14:34;;;;;;;0.95;0.82;;;12.00;99.90;;;;;;5105512;28;20048;-73
2023/10/18 13:17:09;;;;;;;1.20;1.20;;;12.00;99.90;;;;;;5090825;28;20116;-74
2023/10/18 13:19:38;;;;;;;0.45;0.45;;;12.00;99.90;;;;;;5108995;28;20043;-74
2023/10/18 13:22:12;;;;;;;0.43;0.43;;;12.00;99.90;;;;;;5106819;28;20053;-74
2023/10/18 13:24:41;;;;;;;0.28;0.28;;;11.90;99.90;;;;;;5094453;28;20667;-74
2023/10/18 13:27:08;;;;;;;0.80;0.80;;;11.90;99.90;;;;;;5107576;28;20047;-74
2023/10/18 13:29:48;;;;;;;0.30;0.30;;;11.90;99.90;;;;;;5107851;28;20048;-74
2023/10/18 13:32:15;;;;;;;0.45;0.45;;;11.90;99.90;;;;;;5105654;28;20040;-73
2023/10/18 13:34:43;;;;;;;0.60;0.60;;;12.00;99.90;;;;;;5108378;28;20043;-74
2023/10/18 13:37:19;;;;;;;0.70;0.70;;;11.90;99.90;;;;;;5107687;28;20054;-73
2023/10/18 13:39:47;;;;;;;0.47;0.47;;;11.90;99.90;;;;;;5106435;28;20130;-73
2023/10/18 13:42:14;;;;;;;0.75;0.75;;;11.90;99.90;;;;;;5114595;28;20047;-73
2023/10/18 13:44:41;;;;;;;0.57;0.57;;;11.90;99.90;;;;;;5118861;27;20101;-72
2023/10/18 13:47:07;;;;;;;1.35;0.88;;;11.90;99.90;;;;;;5106558;28;20063;-74
2023/10/18 13:49:33;;;;;;;1.05;1.05;;;12.00;99.90;;;;;;5097062;28;20074;-74
2023/10/18 13:52:00;;;;;;;0.45;0.45;;;12.20;99.90;;;;;;5106429;28;20047;-74
2023/10/18 13:54:25;;;;;;;0.70;0.70;;;12.20;99.90;;;;;;5106819;28;21598;-74
2023/10/18 13:56:51;;;;;;;0.95;0.77;;;12.30;99.90;;;;;;5092149;28;20040;-73
2023/10/18 13:59:18;;;;;;;0.40;0.40;;;12.20;99.90;;;;;;5094006;28;20043;-74
2023/10/18 14:01:44;;;;;;;0.38;0.38;;;12.20;99.90;;;;;;5105166;28;20111;-73
2023/10/18 14:04:13;;;;;;;;;;;12.10;99.90;;;;;;5105588;28;20671;-72
2023/10/18 14:06:40;;;;;;;1.15;1.15;;;12.10;99.90;;;;;;5104505;28;20340;-73
2023/10/18 14:09:10;;;;;;;1.60;1.50;;;12.20;99.90;;;;;;5106110;28;20490;-74
2023/10/18 14:11:39;;;;;;;0.77;0.65;;;12.30;99.90;;;;;;5106536;28;20132;-72
2023/10/18 14:14:07;;;;;;;0.90;0.75;;;12.40;99.90;;;;;;5107237;28;20089;-73
2023/10/18 14:16:34;;;;;;;0.60;0.60;;;12.40;99.90;;;;;;5104469;28;20486;-73
2023/10/18 14:19:01;;;;;;;1.60;1.38;;;12.40;99.90;;;;;;5106490;28;20093;-73
2023/10/18 14:21:29;;;;;;;0.45;0.45;;;12.50;99.90;;;;;;5113201;28;20051;-73
2023/10/18 14:23:59;;;;;;;0.60;0.55;;;12.50;99.90;;;;;;5112064;27;20048;-74
2023/10/18 14:26:27;;;;;;;1.50;1.38;;;12.60;99.90;;;;;;5115120;27;20051;-74
2023/10/18 14:28:55;;;;;;;1.67;1.58;;;12.60;99.90;;;;;;5109569;27;20043;-73
2023/10/18 14:31:21;;;;;;;2.25;1.00;;;12.40;99.90;;;;;;5108250;28;20378;-73